Terminal Aerodrome Forecast
Issued by NWS Sterling, VA

Current Version | Previous Version | Text Only | Print | Product List | Glossary Off
Versions: 1 2 3 4 5 6 7 8 9 10 11 12 13 14 15 16 17 18 19 20 21 22 23 24 25 26

000
FTUS41 KLWX 190540
TAFDCA
TAF
KDCA 190540Z 1906/2012 16007KT P6SM BKN050 BKN250
     FM191100 16007KT P6SM VCSH OVC050
     FM191700 17008KT P6SM VCSH OVC020
     FM192000 19005KT P6SM OVC008
     FM192200 18005KT P6SM BKN015
     FM200300 20007KT P6SM BKN035=

USA.gov is the U.S. government's official web portal to all federal, state and local government web resources and services.